createdAt,value
2018-06-02T00:00:16.690Z,22.17
2018-06-02T00:00:57.286Z,22.13
2018-06-02T00:01:37.843Z,22.13
2018-06-02T00:02:18.402Z,22.15
2018-06-02T00:02:58.953Z,22.17
2018-06-02T00:03:39.505Z,22.2
2018-06-02T00:04:20.083Z,22.13
2018-06-02T00:05:00.659Z,22.13
2018-06-02T00:05:41.248Z,22.15
2018-06-02T00:06:21.796Z,22.15
2018-06-02T00:07:02.379Z,22.2
2018-06-02T00:07:42.912Z,22.17
2018-06-02T00:08:23.466Z,22.13
2018-06-02T00:09:03.990Z,22.17
2018-06-02T00:09:44.584Z,22.17
2018-06-02T00:10:25.165Z,22.14
2018-06-02T00:11:05.781Z,22.14
2018-06-02T00:11:46.339Z,22.2
2018-06-02T00:12:26.894Z,22.15
2018-06-02T00:13:07.469Z,22.11
2018-06-02T00:13:48.100Z,22.17
2018-06-02T00:14:28.672Z,22.14
2018-06-02T00:15:09.252Z,22.13
2018-06-02T00:15:49.813Z,22.06
2018-06-02T00:16:30.368Z,22.14
2018-06-02T00:17:10.919Z,22.18
2018-06-02T00:17:51.465Z,22.04
2018-06-02T00:18:32.039Z,22.13
2018-06-02T00:19:12.609Z,22.13
2018-06-02T00:19:53.190Z,22.18
2018-06-02T00:20:33.767Z,22.14
2018-06-02T00:21:14.349Z,22.11
2018-06-02T00:21:54.883Z,22.23
2018-06-02T00:22:35.442Z,22.2
2018-06-02T00:23:16.048Z,22.18
2018-06-02T00:23:56.633Z,22.13
2018-06-02T00:24:37.233Z,22.17
2018-06-02T00:25:17.797Z,22.14
2018-06-02T00:25:58.384Z,22.14
2018-06-02T00:26:38.937Z,22.17
2018-06-02T00:27:19.491Z,22.13
2018-06-02T00:28:00.045Z,22.17
2018-06-02T00:28:40.602Z,22.17
2018-06-02T00:29:21.166Z,22.17
2018-06-02T00:30:01.716Z,22.14
2018-06-02T00:30:42.257Z,22.18
2018-06-02T00:31:22.896Z,22.14
2018-06-02T00:32:03.457Z,22.1
2018-06-02T00:32:44.013Z,22.11
2018-06-02T00:33:24.569Z,22.11
2018-06-02T00:34:05.151Z,22.18
2018-06-02T00:34:45.733Z,22.17
2018-06-02T00:35:26.287Z,22.15
2018-06-02T00:36:06.831Z,22.18
2018-06-02T00:36:47.401Z,22.15
2018-06-02T00:37:27.964Z,22.15
2018-06-02T00:38:08.520Z,22.11
2018-06-02T00:38:49.110Z,22.1
2018-06-02T00:39:29.684Z,22.11
2018-06-02T00:40:10.270Z,22.13
2018-06-02T00:40:50.810Z,22.14
2018-06-02T00:41:31.370Z,22.15
2018-06-02T00:42:11.933Z,22.1
2018-06-02T00:42:52.511Z,22.07
2018-06-02T00:43:33.105Z,22.06
2018-06-02T00:44:13.675Z,22.08
2018-06-02T00:44:54.990Z,22.07
2018-06-02T00:45:35.565Z,22.1
2018-06-02T00:46:16.128Z,22.02
2018-06-02T00:46:56.681Z,22.04
2018-06-02T00:47:37.234Z,22.07
2018-06-02T00:48:17.792Z,22.17
2018-06-02T00:48:58.356Z,22.1
2018-06-02T00:49:38.901Z,22.15
2018-06-02T00:50:19.435Z,22.1
2018-06-02T00:50:59.990Z,22.17
2018-06-02T00:51:40.544Z,22.14
2018-06-02T00:52:21.089Z,22.17
2018-06-02T00:53:01.657Z,22.17
2018-06-02T00:53:42.266Z,22.17
2018-06-02T00:54:22.910Z,22.08
2018-06-02T00:55:03.581Z,22.04
2018-06-02T00:55:44.133Z,22.14
2018-06-02T00:56:24.703Z,22.11
2018-06-02T00:57:05.249Z,22.04
2018-06-02T00:57:45.817Z,22.04
2018-06-02T00:58:26.381Z,22.11
2018-06-02T00:59:06.954Z,22.07
2018-06-02T00:59:47.530Z,22.1
2018-06-02T01:00:28.099Z,21.98
2018-06-02T01:01:08.687Z,22.04
2018-06-02T01:01:49.241Z,21.96
2018-06-02T01:02:29.815Z,22
2018-06-02T01:03:10.444Z,22.02
2018-06-02T01:03:50.955Z,22.04
2018-06-02T01:04:31.507Z,22
2018-06-02T01:05:12.111Z,22.07
2018-06-02T01:05:52.692Z,22
2018-06-02T01:06:33.272Z,22.04
2018-06-02T01:07:13.811Z,22.04
2018-06-02T01:07:54.365Z,22.04
2018-06-02T01:08:34.949Z,21.95
2018-06-02T01:09:15.500Z,22.06
2018-06-02T01:09:56.049Z,22.06
2018-06-02T01:10:36.627Z,22.04
2018-06-02T01:11:17.202Z,22
2018-06-02T01:11:57.754Z,22.02
2018-06-02T01:12:38.308Z,22.06
2018-06-02T01:13:18.918Z,22.07
2018-06-02T01:13:59.518Z,22.04
2018-06-02T01:14:40.056Z,22.13
2018-06-02T01:15:20.614Z,22.07
2018-06-02T01:16:01.179Z,22.04
2018-06-02T01:16:41.732Z,22.02
2018-06-02T01:17:22.281Z,22.02
2018-06-02T01:18:02.835Z,22.06
2018-06-02T01:18:43.380Z,22.04
2018-06-02T01:19:23.938Z,22
2018-06-02T01:20:04.487Z,21.93
2018-06-02T01:20:45.054Z,22
2018-06-02T01:21:25.580Z,22
2018-06-02T01:22:06.135Z,22.07
2018-06-02T01:22:46.679Z,21.98
2018-06-02T01:23:27.234Z,21.95
2018-06-02T01:24:07.816Z,21.91
2018-06-02T01:24:48.402Z,21.96
2018-06-02T01:25:28.966Z,21.95
2018-06-02T01:26:09.533Z,21.89
2018-06-02T01:26:50.093Z,21.92
2018-06-02T01:27:30.645Z,21.92
2018-06-02T01:28:11.208Z,21.91
2018-06-02T01:28:51.742Z,21.92
2018-06-02T01:29:32.294Z,21.93
2018-06-02T01:30:12.876Z,21.89
2018-06-02T01:30:53.472Z,21.91
2018-06-02T01:31:34.011Z,21.98
2018-06-02T01:32:14.582Z,21.93
2018-06-02T01:32:55.138Z,21.93
2018-06-02T01:33:35.696Z,21.91
2018-06-02T01:34:16.252Z,21.89
2018-06-02T01:34:56.798Z,21.82
2018-06-02T01:35:37.371Z,21.95
2018-06-02T01:36:17.902Z,21.91
2018-06-02T01:36:58.532Z,21.93
2018-06-02T01:37:39.127Z,21.92
2018-06-02T01:38:19.715Z,21.92
2018-06-02T01:39:00.278Z,21.91
2018-06-02T01:39:40.925Z,21.91
2018-06-02T01:40:21.501Z,21.95
2018-06-02T01:41:02.070Z,21.88
2018-06-02T01:41:42.610Z,21.93
2018-06-02T01:42:23.167Z,21.92
2018-06-02T01:43:03.727Z,21.96
2018-06-02T01:43:44.326Z,21.92
2018-06-02T01:44:24.912Z,21.89
2018-06-02T01:45:05.470Z,21.88
2018-06-02T01:45:46.152Z,21.92
2018-06-02T01:46:26.768Z,21.82
2018-06-02T01:47:07.317Z,21.91
2018-06-02T01:47:47.916Z,21.88
2018-06-02T01:48:28.485Z,21.91
2018-06-02T01:49:09.121Z,21.85
2018-06-02T01:49:49.685Z,21.92
2018-06-02T01:50:30.253Z,21.91
2018-06-02T01:51:10.814Z,21.93
2018-06-02T01:51:51.377Z,21.82
2018-06-02T01:52:31.928Z,21.82
2018-06-02T01:53:12.482Z,21.93
2018-06-02T01:53:53.038Z,21.85
2018-06-02T01:54:33.609Z,21.83
2018-06-02T01:55:14.167Z,21.85
2018-06-02T01:55:54.745Z,21.85
2018-06-02T01:56:35.337Z,21.88
2018-06-02T01:57:15.892Z,21.91
2018-06-02T01:57:56.451Z,21.91
2018-06-02T01:58:36.998Z,21.79
2018-06-02T01:59:17.553Z,21.88
2018-06-02T01:59:58.129Z,21.93
2018-06-02T02:00:38.701Z,21.91
2018-06-02T02:01:19.322Z,21.8
2018-06-02T02:01:59.876Z,21.88
2018-06-02T02:02:40.443Z,21.91
2018-06-02T02:03:21.000Z,21.88
2018-06-02T02:04:01.590Z,21.91
2018-06-02T02:04:42.151Z,21.88
2018-06-02T02:05:22.703Z,21.91
2018-06-02T02:06:03.255Z,21.88
2018-06-02T02:06:43.807Z,21.85
2018-06-02T02:07:24.381Z,21.82
2018-06-02T02:08:04.951Z,21.95
2018-06-02T02:08:45.502Z,21.85
2018-06-02T02:09:26.091Z,21.85
2018-06-02T02:10:06.703Z,21.85
2018-06-02T02:10:47.272Z,21.92
2018-06-02T02:11:27.845Z,21.8
2018-06-02T02:12:08.405Z,21.8
2018-06-02T02:12:48.960Z,21.76
2018-06-02T02:13:29.532Z,21.83
2018-06-02T02:14:10.071Z,21.89
2018-06-02T02:14:50.644Z,21.8
2018-06-02T02:15:31.248Z,21.82
2018-06-02T02:16:11.769Z,21.85
2018-06-02T02:16:52.332Z,21.82
2018-06-02T02:17:32.910Z,21.82
2018-06-02T02:18:13.466Z,21.82
2018-06-02T02:18:54.015Z,21.92
2018-06-02T02:19:34.558Z,21.89
2018-06-02T02:20:15.136Z,21.92
2018-06-02T02:20:55.674Z,21.82
2018-06-02T02:21:36.282Z,21.88
2018-06-02T02:22:16.861Z,21.75
2018-06-02T02:22:57.413Z,21.76
2018-06-02T02:23:37.966Z,21.83
2018-06-02T02:24:18.548Z,21.7
2018-06-02T02:24:59.084Z,21.76
2018-06-02T02:25:39.647Z,21.73
2018-06-02T02:26:20.204Z,21.82
2018-06-02T02:27:00.774Z,21.7
2018-06-02T02:27:41.352Z,21.79
2018-06-02T02:28:21.913Z,21.66
2018-06-02T02:29:02.478Z,21.69
2018-06-02T02:29:43.053Z,21.73
2018-06-02T02:30:23.621Z,21.69
2018-06-02T02:31:04.200Z,21.77
2018-06-02T02:31:44.769Z,21.73
2018-06-02T02:32:25.338Z,21.76
2018-06-02T02:33:05.892Z,21.75
2018-06-02T02:33:46.478Z,21.77
2018-06-02T02:34:27.054Z,21.79
2018-06-02T02:35:07.629Z,21.69
2018-06-02T02:35:48.194Z,21.77
2018-06-02T02:36:28.755Z,21.79
2018-06-02T02:37:09.307Z,21.72
2018-06-02T02:37:49.876Z,21.82
2018-06-02T02:38:30.460Z,21.76
2018-06-02T02:39:11.030Z,21.69
2018-06-02T02:39:51.595Z,21.75
2018-06-02T02:40:32.155Z,21.83
2018-06-02T02:41:12.713Z,21.73
2018-06-02T02:41:53.255Z,21.69
2018-06-02T02:42:33.818Z,21.7
2018-06-02T02:43:14.416Z,21.76
2018-06-02T02:43:55.005Z,21.77
2018-06-02T02:44:35.560Z,21.67
2018-06-02T02:45:16.144Z,21.77
2018-06-02T02:45:56.668Z,21.77
2018-06-02T02:46:37.215Z,21.67
2018-06-02T02:47:17.774Z,21.69
2018-06-02T02:47:58.326Z,21.6
2018-06-02T02:48:38.870Z,21.61
2018-06-02T02:49:19.427Z,21.66
2018-06-02T02:49:59.975Z,21.66
2018-06-02T02:50:40.582Z,21.54
2018-06-02T02:51:21.209Z,21.51
2018-06-02T02:52:01.792Z,21.67
2018-06-02T02:52:42.355Z,21.58
2018-06-02T02:53:22.921Z,21.72
2018-06-02T02:54:03.482Z,21.57
2018-06-02T02:54:44.027Z,21.67
2018-06-02T02:55:24.599Z,21.62
2018-06-02T02:56:05.160Z,21.66
2018-06-02T02:56:45.737Z,21.72
2018-06-02T02:57:26.341Z,21.57
2018-06-02T02:58:06.937Z,21.55
2018-06-02T02:58:47.512Z,21.7
2018-06-02T02:59:28.084Z,21.67
2018-06-02T03:00:08.659Z,21.67
2018-06-02T03:00:49.225Z,21.58
2018-06-02T03:01:29.816Z,21.7
2018-06-02T03:02:10.395Z,21.72
2018-06-02T03:02:50.956Z,21.73
2018-06-02T03:03:31.573Z,21.75
2018-06-02T03:04:12.132Z,21.67
2018-06-02T03:04:52.676Z,21.69
2018-06-02T03:05:33.238Z,21.62
2018-06-02T03:06:13.793Z,21.67
2018-06-02T03:06:54.379Z,21.72
2018-06-02T03:07:35.012Z,21.7
2018-06-02T03:08:15.607Z,21.75
2018-06-02T03:08:56.183Z,21.76
2018-06-02T03:09:36.744Z,21.52
2018-06-02T03:10:17.297Z,21.67
2018-06-02T03:10:57.853Z,21.62
2018-06-02T03:11:38.402Z,21.55
2018-06-02T03:12:18.957Z,21.69
2018-06-02T03:12:59.564Z,21.58
2018-06-02T03:13:40.059Z,21.6
2018-06-02T03:14:20.614Z,21.6
2018-06-02T03:15:01.179Z,21.57
2018-06-02T03:15:41.749Z,21.64
2018-06-02T03:16:22.293Z,21.69
2018-06-02T03:17:02.873Z,21.52
2018-06-02T03:17:43.434Z,21.61
2018-06-02T03:18:24.004Z,21.69
2018-06-02T03:19:04.578Z,21.6
2018-06-02T03:19:45.141Z,21.6
2018-06-02T03:20:25.676Z,21.58
2018-06-02T03:21:06.295Z,21.62
2018-06-02T03:21:46.825Z,21.69
2018-06-02T03:22:27.447Z,21.54
2018-06-02T03:23:08.021Z,21.6
2018-06-02T03:23:48.571Z,21.67
2018-06-02T03:24:29.143Z,21.62
2018-06-02T03:25:09.717Z,21.69
2018-06-02T03:25:50.264Z,21.67
2018-06-02T03:26:30.815Z,21.48
2018-06-02T03:27:11.372Z,21.48
2018-06-02T03:27:51.955Z,21.66
2018-06-02T03:28:32.517Z,21.62
2018-06-02T03:29:13.132Z,21.51
2018-06-02T03:29:53.688Z,21.54
2018-06-02T03:30:34.238Z,21.57
2018-06-02T03:31:14.786Z,21.54
2018-06-02T03:31:55.377Z,21.5
2018-06-02T03:32:35.942Z,21.64
2018-06-02T03:33:16.560Z,21.48
2018-06-02T03:33:57.138Z,21.52
2018-06-02T03:34:37.714Z,21.51
2018-06-02T03:35:18.284Z,21.55
2018-06-02T03:35:58.835Z,21.69
2018-06-02T03:36:39.428Z,21.66
2018-06-02T03:37:20.026Z,21.6
2018-06-02T03:38:00.584Z,21.72
2018-06-02T03:38:41.175Z,21.54
2018-06-02T03:39:21.736Z,21.6
2018-06-02T03:40:02.296Z,21.64
2018-06-02T03:40:42.874Z,21.67
2018-06-02T03:41:23.434Z,21.58
2018-06-02T03:42:04.003Z,21.6
2018-06-02T03:42:44.556Z,21.61
2018-06-02T03:43:25.136Z,21.62
2018-06-02T03:44:05.732Z,21.62
2018-06-02T03:44:46.308Z,21.62
2018-06-02T03:45:26.869Z,21.58
2018-06-02T03:46:07.421Z,21.62
2018-06-02T03:46:47.977Z,21.73
2018-06-02T03:47:28.544Z,21.69
2018-06-02T03:48:09.131Z,21.69
2018-06-02T03:48:49.695Z,21.58
2018-06-02T03:49:30.284Z,21.61
2018-06-02T03:50:10.840Z,21.6
2018-06-02T03:50:51.401Z,21.75
2018-06-02T03:51:31.984Z,21.6
2018-06-02T03:52:12.561Z,21.67
2018-06-02T03:52:53.109Z,21.64
2018-06-02T03:53:33.660Z,21.72
2018-06-02T03:54:14.226Z,21.66
2018-06-02T03:54:54.817Z,21.66
2018-06-02T03:55:35.365Z,21.67
2018-06-02T03:56:15.951Z,21.69
2018-06-02T03:56:56.593Z,21.61
2018-06-02T03:57:37.140Z,21.69
2018-06-02T03:58:17.717Z,21.66
2018-06-02T03:58:58.276Z,21.76
2018-06-02T03:59:38.819Z,21.67
2018-06-02T04:00:19.384Z,21.67
2018-06-02T04:00:59.923Z,21.82
2018-06-02T04:01:40.500Z,21.8
2018-06-02T04:02:21.072Z,21.8
2018-06-02T04:03:01.672Z,21.66
2018-06-02T04:03:42.221Z,21.88
2018-06-02T04:04:22.811Z,21.75
2018-06-02T04:05:03.383Z,21.76
2018-06-02T04:05:43.931Z,21.69
2018-06-02T04:06:24.520Z,21.8
2018-06-02T04:07:05.085Z,21.83
2018-06-02T04:07:45.636Z,21.83
2018-06-02T04:08:26.186Z,21.73
2018-06-02T04:09:06.743Z,21.88
2018-06-02T04:09:47.285Z,21.8
2018-06-02T04:10:27.881Z,21.88
2018-06-02T04:11:08.435Z,21.79
2018-06-02T04:11:49.057Z,21.88
2018-06-02T04:12:29.626Z,21.83
2018-06-02T04:13:10.210Z,21.8
2018-06-02T04:13:50.776Z,21.8
2018-06-02T04:14:31.343Z,21.85
2018-06-02T04:15:11.896Z,21.96
2018-06-02T04:15:52.508Z,21.89
2018-06-02T04:16:33.000Z,21.92
2018-06-02T04:17:13.555Z,21.83
2018-06-02T04:17:54.181Z,21.85
2018-06-02T04:18:34.752Z,21.83
2018-06-02T04:19:15.295Z,21.83
2018-06-02T04:19:55.859Z,21.95
2018-06-02T04:20:36.410Z,21.8
2018-06-02T04:21:16.991Z,21.83
2018-06-02T04:21:57.595Z,21.85
2018-06-02T04:22:38.190Z,21.82
2018-06-02T04:23:18.746Z,21.8
2018-06-02T04:23:59.321Z,21.92
2018-06-02T04:24:39.904Z,21.82
2018-06-02T04:25:20.484Z,21.82
2018-06-02T04:26:01.077Z,21.91
2018-06-02T04:26:41.615Z,21.91
2018-06-02T04:27:22.215Z,21.93
2018-06-02T04:28:02.771Z,21.95
2018-06-02T04:28:43.408Z,21.88
2018-06-02T04:29:23.961Z,21.89
2018-06-02T04:30:04.511Z,21.91
2018-06-02T04:30:45.076Z,21.91
2018-06-02T04:31:25.664Z,21.85
2018-06-02T04:32:06.273Z,21.89
2018-06-02T04:32:46.811Z,21.95
2018-06-02T04:33:27.363Z,21.92
2018-06-02T04:34:07.935Z,21.92
2018-06-02T04:34:48.493Z,21.95
2018-06-02T04:35:29.043Z,21.93
2018-06-02T04:36:09.620Z,21.93
2018-06-02T04:36:50.189Z,21.93
2018-06-02T04:37:30.765Z,21.93
2018-06-02T04:38:11.328Z,21.95
2018-06-02T04:38:51.882Z,21.89
2018-06-02T04:39:32.461Z,21.96
2018-06-02T04:40:13.020Z,21.89
2018-06-02T04:40:53.598Z,21.93
2018-06-02T04:41:34.208Z,21.93
2018-06-02T04:42:14.724Z,21.95
2018-06-02T04:42:55.269Z,21.93
2018-06-02T04:43:35.838Z,21.95
2018-06-02T04:44:16.416Z,21.92
2018-06-02T04:44:57.022Z,21.96
2018-06-02T04:45:37.559Z,21.92
2018-06-02T04:46:18.137Z,21.99
2018-06-02T04:46:58.724Z,22
2018-06-02T04:47:39.286Z,22
2018-06-02T04:48:19.881Z,22.06
2018-06-02T04:49:00.422Z,21.98
2018-06-02T04:49:40.991Z,21.98
2018-06-02T04:50:21.543Z,21.98
2018-06-02T04:51:02.105Z,21.98
2018-06-02T04:51:42.657Z,21.98
2018-06-02T04:52:23.205Z,22
2018-06-02T04:53:03.770Z,22
2018-06-02T04:53:44.328Z,22.04
2018-06-02T04:54:24.890Z,21.93
2018-06-02T04:55:05.450Z,22.02
2018-06-02T04:55:45.990Z,22.07
2018-06-02T04:56:26.550Z,22.07
2018-06-02T04:57:07.155Z,22.06
2018-06-02T04:57:47.712Z,22.1
2018-06-02T04:58:28.294Z,22.04
2018-06-02T04:59:08.902Z,22.11
2018-06-02T04:59:49.459Z,22.08
2018-06-02T05:00:30.025Z,22.08
2018-06-02T05:01:10.589Z,22.13
2018-06-02T05:01:51.165Z,22.1
2018-06-02T05:02:31.739Z,22.1
2018-06-02T05:03:12.239Z,22.06
2018-06-02T05:03:52.800Z,22.13
2018-06-02T05:04:33.379Z,22.06
2018-06-02T05:05:13.937Z,22.07
2018-06-02T05:05:54.503Z,22.07
2018-06-02T05:06:35.061Z,22.06
2018-06-02T05:07:15.622Z,22.07
2018-06-02T05:07:56.184Z,22.04
2018-06-02T05:08:36.782Z,22.07
2018-06-02T05:09:17.347Z,22.07
2018-06-02T05:09:57.927Z,22.1
2018-06-02T05:10:38.518Z,22.07
2018-06-02T05:11:19.070Z,22.08
2018-06-02T05:11:59.660Z,22.11
2018-06-02T05:12:40.217Z,22.06
2018-06-02T05:13:20.776Z,22.11
2018-06-02T05:14:01.374Z,22.1
2018-06-02T05:14:41.946Z,22.08
2018-06-02T05:15:22.493Z,22.02
2018-06-02T05:16:03.071Z,22.07
2018-06-02T05:16:43.616Z,22.1
2018-06-02T05:17:24.196Z,21.99
2018-06-02T05:18:04.760Z,22.07
2018-06-02T05:18:45.362Z,22.02
2018-06-02T05:19:25.930Z,22.07
2018-06-02T05:20:06.487Z,22.07
2018-06-02T05:20:47.054Z,22.08
2018-06-02T05:21:27.664Z,22.06
2018-06-02T05:22:08.275Z,22.13
2018-06-02T05:22:48.826Z,22.06
2018-06-02T05:23:29.399Z,22.11
2018-06-02T05:24:09.992Z,22.14
2018-06-02T05:24:50.551Z,22.04
2018-06-02T05:25:31.103Z,22.13
2018-06-02T05:26:11.681Z,22.1
2018-06-02T05:26:52.302Z,22.11
2018-06-02T05:27:32.886Z,22.04
2018-06-02T05:28:13.489Z,22.13
2018-06-02T05:28:54.060Z,22.18
2018-06-02T05:29:34.620Z,22.18
2018-06-02T05:30:15.173Z,22.1
2018-06-02T05:30:55.719Z,22.15
2018-06-02T05:31:36.287Z,22.14
2018-06-02T05:32:16.820Z,22.18
2018-06-02T05:32:57.390Z,22.18
2018-06-02T05:33:37.955Z,22.14
2018-06-02T05:34:18.517Z,22.17
2018-06-02T05:34:59.119Z,22.2
2018-06-02T05:35:39.675Z,22.22
2018-06-02T05:36:20.224Z,22.1
2018-06-02T05:37:00.786Z,22.14
2018-06-02T05:37:41.374Z,22.15
2018-06-02T05:38:22.018Z,22.18
2018-06-02T05:39:02.596Z,22.07
2018-06-02T05:39:43.195Z,22.14
2018-06-02T05:40:23.707Z,22.15
2018-06-02T05:41:04.259Z,22.08
2018-06-02T05:41:44.838Z,22.17
2018-06-02T05:42:25.431Z,22.11
2018-06-02T05:43:05.955Z,22.14
2018-06-02T05:43:46.571Z,22.17
2018-06-02T05:44:27.173Z,22.23
2018-06-02T05:45:07.733Z,22.15
2018-06-02T05:45:48.288Z,22.22
2018-06-02T05:46:28.882Z,22.15
2018-06-02T05:47:09.429Z,22.17
2018-06-02T05:47:50.001Z,22.18
2018-06-02T05:48:30.588Z,22.13
2018-06-02T05:49:11.145Z,22.15
2018-06-02T05:49:51.700Z,22.29
2018-06-02T05:50:32.288Z,22.25
2018-06-02T05:51:12.846Z,22.22
2018-06-02T05:51:53.460Z,22.22
2018-06-02T05:52:33.944Z,22.25
2018-06-02T05:53:14.756Z,22.18
2018-06-02T05:53:55.335Z,22.26
2018-06-02T05:54:35.933Z,22.23
2018-06-02T05:55:16.447Z,22.25
2018-06-02T05:55:57.097Z,22.23
2018-06-02T05:56:37.657Z,22.23
2018-06-02T05:57:18.220Z,22.23
2018-06-02T05:57:58.797Z,22.25
2018-06-02T05:58:39.431Z,22.28
2018-06-02T05:59:19.963Z,22.32
2018-06-02T06:00:00.561Z,22.36
2018-06-02T06:00:41.139Z,22.45
2018-06-02T06:01:21.697Z,22.43
2018-06-02T06:02:02.268Z,22.48
2018-06-02T06:02:42.816Z,22.53
2018-06-02T06:03:23.374Z,22.57
2018-06-02T06:04:03.944Z,22.6
2018-06-02T06:04:44.494Z,22.63
2018-06-02T06:05:25.052Z,22.66
2018-06-02T06:06:05.635Z,22.68
2018-06-02T06:06:46.226Z,22.75
2018-06-02T06:07:26.896Z,22.78
2018-06-02T06:08:07.467Z,22.73
2018-06-02T06:08:48.026Z,22.83
2018-06-02T06:09:28.620Z,22.81
2018-06-02T06:10:09.211Z,22.87
2018-06-02T06:10:49.787Z,22.88
2018-06-02T06:11:30.355Z,22.9
2018-06-02T06:12:10.931Z,22.99
2018-06-02T06:12:51.494Z,22.93
2018-06-02T06:13:32.073Z,23.08
2018-06-02T06:14:12.643Z,23.12
2018-06-02T06:14:53.280Z,23.09
2018-06-02T06:15:33.879Z,23.03
2018-06-02T06:16:14.423Z,23.09
2018-06-02T06:16:54.993Z,23.12
2018-06-02T06:17:35.566Z,23.2
2018-06-02T06:18:16.129Z,23.17
2018-06-02T06:18:56.729Z,23.21
2018-06-02T06:19:37.443Z,23.2
2018-06-02T06:20:17.866Z,23.23
2018-06-02T06:20:58.414Z,23.23
2018-06-02T06:21:38.957Z,23.2
2018-06-02T06:22:19.523Z,23.31
2018-06-02T06:23:00.088Z,23.28
2018-06-02T06:23:40.643Z,23.27
2018-06-02T06:24:21.212Z,23.28
2018-06-02T06:25:01.785Z,23.34
2018-06-02T06:25:42.347Z,23.31
2018-06-02T06:26:22.905Z,23.28
2018-06-02T06:27:03.477Z,23.34
2018-06-02T06:27:44.043Z,23.37
2018-06-02T06:28:24.610Z,23.34
2018-06-02T06:29:05.192Z,23.37
2018-06-02T06:29:45.760Z,23.39
2018-06-02T06:30:26.309Z,23.28
2018-06-02T06:31:06.886Z,23.36
2018-06-02T06:31:47.467Z,23.41
2018-06-02T06:32:28.096Z,23.37
2018-06-02T06:33:08.681Z,23.36
2018-06-02T06:33:49.237Z,23.34
2018-06-02T06:34:29.818Z,23.31
2018-06-02T06:35:10.462Z,23.24
2018-06-02T06:35:51.197Z,23.23
2018-06-02T06:36:31.751Z,23.21
2018-06-02T06:37:12.387Z,23.2
2018-06-02T06:37:52.875Z,23.17
2018-06-02T06:38:33.467Z,23.15
2018-06-02T06:39:14.042Z,23.17
2018-06-02T06:39:54.642Z,23.1
2018-06-02T06:40:35.205Z,23.18
2018-06-02T06:41:15.764Z,23.15
2018-06-02T06:41:56.329Z,23.1
2018-06-02T06:42:36.888Z,23.15
2018-06-02T06:43:17.452Z,23.15
2018-06-02T06:43:58.048Z,23.17
2018-06-02T06:44:38.668Z,23.17
2018-06-02T06:45:19.176Z,23.12
2018-06-02T06:45:59.739Z,23.13
2018-06-02T06:46:40.298Z,23.1
2018-06-02T06:47:20.859Z,23.12
2018-06-02T06:48:01.415Z,23.15
2018-06-02T06:48:41.991Z,23.15
2018-06-02T06:49:22.575Z,23.15
2018-06-02T06:50:03.132Z,23.15
2018-06-02T06:50:43.700Z,23.12
2018-06-02T06:51:24.264Z,23.18
2018-06-02T06:52:04.833Z,23.24
2018-06-02T06:52:45.388Z,23.31
2018-06-02T06:53:25.981Z,23.39
2018-06-02T06:54:06.543Z,23.32
2018-06-02T06:54:47.150Z,23.43
2018-06-02T06:55:27.710Z,23.47
2018-06-02T06:56:08.274Z,23.5
2018-06-02T06:56:48.820Z,23.54
2018-06-02T06:57:29.371Z,23.62
2018-06-02T06:58:09.935Z,23.66
2018-06-02T06:58:50.536Z,23.74
2018-06-02T06:59:31.098Z,23.73
2018-06-02T07:00:11.694Z,23.86
2018-06-02T07:00:52.249Z,23.83
2018-06-02T07:01:32.853Z,23.88
2018-06-02T07:02:13.407Z,23.99
2018-06-02T07:02:53.972Z,24.14
2018-06-02T07:03:34.627Z,24.16
2018-06-02T07:04:15.184Z,24.23
2018-06-02T07:04:55.743Z,24.39
2018-06-02T07:05:36.354Z,24.53
2018-06-02T07:06:16.918Z,24.6
2018-06-02T07:06:57.484Z,24.76
2018-06-02T07:07:38.051Z,24.74
2018-06-02T07:08:18.616Z,24.99
2018-06-02T07:08:59.231Z,24.92
2018-06-02T07:09:39.784Z,25.06
2018-06-02T07:10:20.382Z,25.1
2018-06-02T07:11:00.938Z,25.17
2018-06-02T07:11:41.559Z,25.14
2018-06-02T07:12:22.082Z,25.28
2018-06-02T07:13:02.630Z,25.33
2018-06-02T07:13:43.180Z,25.38
2018-06-02T07:14:23.744Z,25.4
2018-06-02T07:15:04.325Z,25.4
2018-06-02T07:15:44.959Z,25.44
2018-06-02T07:16:25.488Z,25.51
2018-06-02T07:17:06.046Z,25.43
2018-06-02T07:17:46.887Z,25.51
2018-06-02T07:18:27.456Z,25.46
2018-06-02T07:19:08.065Z,25.55
2018-06-02T07:19:48.623Z,25.46
2018-06-02T07:20:29.197Z,25.47
2018-06-02T07:21:09.774Z,25.43
2018-06-02T07:21:50.386Z,25.43
2018-06-02T07:22:30.911Z,25.38
2018-06-02T07:23:11.525Z,25.36
2018-06-02T07:23:52.091Z,25.36
2018-06-02T07:24:32.654Z,25.36
2018-06-02T07:25:13.224Z,25.33
2018-06-02T07:25:53.803Z,25.23
2018-06-02T07:26:34.380Z,25.35
2018-06-02T07:27:14.955Z,25.31
2018-06-02T07:27:55.517Z,25.33
2018-06-02T07:28:36.077Z,25.25
2018-06-02T07:29:16.652Z,25.32
2018-06-02T07:29:57.224Z,25.23
2018-06-02T07:30:37.789Z,25.35
2018-06-02T07:31:18.430Z,25.31
2018-06-02T07:31:59.003Z,25.32
2018-06-02T07:32:39.578Z,25.21
2018-06-02T07:33:20.168Z,25.23
2018-06-02T07:34:00.743Z,25.23
2018-06-02T07:34:41.313Z,25.1
2018-06-02T07:35:21.887Z,25.17
2018-06-02T07:36:02.475Z,25.16
2018-06-02T07:36:43.029Z,25.21
2018-06-02T07:37:23.604Z,25.11
2018-06-02T07:38:04.160Z,25.13
2018-06-02T07:38:44.724Z,25.1
2018-06-02T07:39:25.299Z,25.17
2018-06-02T07:40:05.899Z,25.17
2018-06-02T07:40:46.444Z,25.1
2018-06-02T07:41:27.016Z,25.03
2018-06-02T07:42:07.600Z,25.13
2018-06-02T07:42:48.176Z,25.21
2018-06-02T07:43:28.749Z,25.13
2018-06-02T07:44:09.313Z,25.08
2018-06-02T07:44:49.883Z,25.1
2018-06-02T07:45:30.467Z,25.11
2018-06-02T07:46:11.036Z,25.07
2018-06-02T07:46:51.603Z,25.11
2018-06-02T07:47:32.185Z,25.06
2018-06-02T07:48:12.750Z,25.11
2018-06-02T07:48:53.337Z,25.11
2018-06-02T07:49:33.902Z,25.07
2018-06-02T07:50:14.476Z,25.06
2018-06-02T07:50:55.049Z,25.13
2018-06-02T07:51:35.656Z,25.17
2018-06-02T07:52:16.229Z,25.22
2018-06-02T07:52:56.871Z,25.23
2018-06-02T07:53:37.424Z,25.23
2018-06-02T07:54:17.983Z,25.4
2018-06-02T07:54:58.536Z,25.38
2018-06-02T07:55:39.091Z,25.48
2018-06-02T07:56:19.652Z,25.51
2018-06-02T07:57:00.214Z,25.46
2018-06-02T07:57:40.860Z,25.59
2018-06-02T07:58:21.381Z,25.54
2018-06-02T07:59:01.957Z,25.65
2018-06-02T07:59:42.531Z,25.68
2018-06-02T08:00:23.114Z,25.73
2018-06-02T08:01:03.679Z,25.68
2018-06-02T08:01:44.263Z,25.7
2018-06-02T08:02:24.831Z,25.87
2018-06-02T08:03:05.393Z,25.9
2018-06-02T08:03:45.968Z,25.9
2018-06-02T08:04:26.561Z,25.96
2018-06-02T08:05:07.124Z,26
2018-06-02T08:05:47.716Z,25.95
2018-06-02T08:06:28.287Z,25.99
2018-06-02T08:07:08.857Z,25.98
2018-06-02T08:07:49.428Z,26.07
2018-06-02T08:08:30.057Z,26.06
2018-06-02T08:09:10.594Z,26.13
2018-06-02T08:09:51.213Z,26.09
2018-06-02T08:10:31.786Z,26.21
2018-06-02T08:11:12.367Z,26.09
2018-06-02T08:11:52.932Z,26.02
2018-06-02T08:12:33.515Z,26.05
2018-06-02T08:13:14.077Z,26.02
2018-06-02T08:13:54.642Z,25.95
2018-06-02T08:14:35.209Z,25.93
2018-06-02T08:15:15.756Z,25.93
2018-06-02T08:15:56.312Z,25.9
2018-06-02T08:16:36.882Z,25.87
2018-06-02T08:17:17.435Z,25.81
2018-06-02T08:17:58.016Z,25.84
2018-06-02T08:18:38.607Z,25.72
2018-06-02T08:19:19.178Z,25.68
2018-06-02T08:19:59.722Z,25.7
2018-06-02T08:20:40.325Z,25.68
2018-06-02T08:21:20.829Z,25.83
2018-06-02T08:22:01.385Z,25.9
2018-06-02T08:22:41.952Z,25.93
2018-06-02T08:23:22.542Z,25.99
2018-06-02T08:24:03.117Z,26.13
2018-06-02T08:24:43.684Z,26.18
2018-06-02T08:25:24.267Z,26.09
2018-06-02T08:26:04.828Z,26.13
2018-06-02T08:26:45.423Z,26.26
2018-06-02T08:27:25.983Z,26.1
2018-06-02T08:28:06.546Z,26.21
2018-06-02T08:28:47.108Z,26.1
2018-06-02T08:29:27.768Z,26.19
2018-06-02T08:30:08.395Z,26.1
2018-06-02T08:30:48.957Z,26.1
2018-06-02T08:31:29.545Z,26
2018-06-02T08:32:10.122Z,25.99
2018-06-02T08:32:50.688Z,26.06
2018-06-02T08:33:31.364Z,26.05
2018-06-02T08:34:11.873Z,26.02
2018-06-02T08:34:52.440Z,25.99
2018-06-02T08:35:32.997Z,25.91
2018-06-02T08:36:13.558Z,25.96
2018-06-02T08:36:54.121Z,25.93
2018-06-02T08:37:34.736Z,25.93
2018-06-02T08:38:15.305Z,26
2018-06-02T08:38:55.893Z,26.02
2018-06-02T08:39:36.461Z,26.03
2018-06-02T08:40:17.025Z,26.07
2018-06-02T08:40:57.601Z,26.19
2018-06-02T08:41:38.171Z,26.13
2018-06-02T08:42:18.754Z,26.23
2018-06-02T08:42:59.328Z,26.16
2018-06-02T08:43:39.901Z,26.19
2018-06-02T08:44:20.467Z,26.05
2018-06-02T08:45:01.057Z,26.06